Terminal Aerodrome Forecast
Issued by NWS

Home | Current Version | Previous Version | Graphics & Text | Print | Product List | Glossary On
Versions: 1 2 3 4 5 6 7 8 9 10 11 12 13
422
FTUS43 KFGF 201134
TAFBJI
TAF
KBJI 201134Z 2012/2112 13006KT P6SM FEW250
     FM201600 14010KT P6SM FEW250
     FM201800 15015G23KT P6SM FEW250
     FM210700 17013G24KT P6SM VCSH SCT040 BKN090=

USA.gov is the U.S. government's official web portal to all federal, state and local government web resources and services.